CDT,Max TemperatureF,Mean TemperatureF,Min TemperatureF,Max Dew PointF,MeanDew PointF,Min DewpointF,Max Humidity, Mean Humidity, Min Humidity, Max Sea Level PressureIn, Mean Sea Level PressureIn, Min Sea Level PressureIn, Max VisibilityMiles, Mean VisibilityMiles, Min VisibilityMiles, Max Wind SpeedMPH, Mean Wind SpeedMPH, Max Gust SpeedMPH,PrecipitationIn, CloudCover, Events, WindDirDegrees
2012-7-1,93,80,66,70,67,61,93,67,41,30.00,29.93,29.88,10,8,0,28,5,33,0.00,3,Fog,176
2012-7-2,98,85,71,73,69,64,90,63,35,29.99,29.94,29.89,10,9,7,16,5,22,0.00,3,,191
2012-7-3,97,86,75,73,69,64,79,61,43,29.93,29.87,29.81,10,10,10,17,9,23,0.00,4,,216
2012-7-4,102,89,75,72,69,65,82,56,29,29.90,29.86,29.83,10,10,8,21,8,26,0.01,1,,219
2012-7-5,102,88,74,75,70,65,87,60,33,29.94,29.91,29.88,10,10,8,17,6,21,0.00,2,,230
2012-7-6,104,91,77,76,71,63,85,57,29,29.99,29.95,29.92,10,10,8,15,5,25,0.00,0,,233
2012-7-7,105,90,74,75,69,55,87,59,30,30.04,29.97,29.92,10,10,10,22,6,26,0.02,3,Rain-Thunderstorm,53
2012-7-8,91,79,67,57,53,50,61,44,26,30.11,30.06,30.02,10,10,10,21,9,25,0.00,2,,66
2012-7-9,92,77,62,67,59,57,84,58,32,30.08,30.05,30.01,10,10,10,16,4,22,0.01,3,Rain,158
2012-7-10,86,77,67,60,53,44,78,53,28,30.14,30.11,30.07,10,10,10,13,6,18,0.00,5,,86
2012-7-11,90,75,60,57,50,43,72,47,21,30.18,30.13,30.07,10,10,10,12,5,16,0.00,1,,65
2012-7-12,93,78,63,61,57,54,78,54,30,30.11,30.07,30.02,10,10,10,16,5,21,0.00,2,,150
2012-7-13,87,78,68,64,60,55,69,57,44,30.10,30.05,30.02,10,10,10,16,4,20,T,6,Rain-Thunderstorm,240
2012-7-14,90,80,69,68,64,58,90,63,36,30.10,30.03,29.97,10,9,6,20,6,24,0.14,5,Rain-Thunderstorm,215
2012-7-15,96,83,69,69,66,62,90,62,33,30.07,30.02,29.98,10,9,4,12,4,16,0.00,2,,221
2012-7-16,98,85,71,71,67,62,90,62,33,30.01,29.93,29.83,10,10,6,20,7,28,0.00,3,,210
2012-7-17,100,87,74,71,67,63,82,57,31,29.86,29.84,29.80,10,10,10,21,8,26,0.00,1,,230
2012-7-18,99,85,70,72,69,66,87,63,39,29.96,29.89,29.80,10,9,1,39,9,53,0.94,5,Rain-Thunderstorm,96
2012-7-19,88,79,70,72,67,63,93,73,53,30.03,29.93,29.86,10,10,6,22,10,25,0.14,7,Rain-Thunderstorm,31
2012-7-20,87,77,67,63,60,54,81,58,34,30.13,30.07,30.02,10,10,10,16,8,22,T,5,,41
2012-7-21,88,76,63,70,63,58,93,69,44,30.14,30.08,30.04,10,10,10,12,5,16,0.00,4,,227
2012-7-22,91,80,68,70,67,64,90,70,50,30.12,30.04,29.98,10,9,7,14,7,18,0.02,5,Rain,188
2012-7-23,95,86,76,75,69,62,85,66,46,29.96,29.94,29.90,10,10,10,13,7,17,0.00,6,,225
2012-7-24,84,77,69,74,68,58,87,72,57,30.08,29.97,29.89,10,9,1,46,6,64,0.66,7,Rain-Thunderstorm,67
2012-7-25,99,84,68,74,66,60,84,60,35,29.93,29.74,29.56,10,10,10,40,12,56,0.00,4,,184
2012-7-26,90,79,68,71,67,57,90,68,45,29.80,29.71,29.60,10,10,6,37,9,53,0.14,6,Rain-Thunderstorm,271
2012-7-27,84,75,65,63,61,59,87,65,43,30.03,29.88,29.79,10,10,10,20,8,25,0.01,2,,327
2012-7-28,86,76,65,63,61,57,87,64,40,30.15,30.10,30.04,10,10,10,10,5,16,0.00,3,,34
2012-7-29,81,72,63,69,62,56,87,66,45,30.12,30.05,29.98,10,10,7,14,5,17,0.07,5,Rain,136
2012-7-30,92,81,69,69,65,60,79,62,44,29.97,29.92,29.86,10,10,10,13,6,16,0.00,4,,181
2012-7-31,89,80,70,69,65,61,97,70,43,29.97,29.92,29.87,10,9,1,24,6,31,0.53,3,Rain-Thunderstorm,343